Time;durP1;ratioP1;P1;durP2;ratioP2;P2;SDS_P1;SDS_P2;PMS_P1;PMS_P2;Temp;Humidity;BMP_temperature;BMP_pressure;BME280_temperature;BME280_humidity;BME280_pressure;Samples;Min_cycle;Max_cycle;Signal;HPM_P1;HPM_P2
2022/10/29 00:01:45;;;;;;;57.63;25.10;;;;;;;14.90;100.00;100882.69;5077659;28;20507;-64
2022/10/29 00:04:13;;;;;;;54.60;20.55;;;;;;;14.85;100.00;100889.81;5089815;28;20039;-63
2022/10/29 00:06:39;;;;;;;58.80;20.27;;;;;;;14.78;100.00;100888.00;5097604;28;20089;-63
2022/10/29 00:09:04;;;;;;;47.83;17.20;;;;;;;14.79;100.00;100894.25;5083310;28;20478;-63
2022/10/29 00:11:30;;;;;;;52.47;13.50;;;;;;;14.58;100.00;100881.97;5104601;28;20439;-64
2022/10/29 00:13:58;;;;;;;44.58;12.95;;;;;;;14.61;100.00;100892.38;5076448;28;20119;-64
2022/10/29 00:16:43;;;;;;;42.35;11.52;;;;;;;14.63;100.00;100908.38;5108611;28;20020;-64
2022/10/29 00:19:09;;;;;;;45.70;9.73;;;;;;;14.60;100.00;100903.41;5032299;28;20128;-63
2022/10/29 00:21:34;;;;;;;42.53;10.32;;;;;;;14.50;100.00;100901.16;5016098;28;20124;-63
2022/10/29 00:24:00;;;;;;;44.72;10.10;;;;;;;14.30;100.00;100879.69;5015880;28;20484;-63
2022/10/29 00:26:28;;;;;;;57.67;9.75;;;;;;;14.09;100.00;100895.28;5032459;28;20500;-63
2022/10/29 00:28:55;;;;;;;40.22;8.02;;;;;;;14.15;100.00;100917.09;5012508;28;20116;-64
2022/10/29 00:31:27;;;;;;;52.03;9.18;;;;;;;13.81;100.00;100890.28;5024518;28;20607;-63
2022/10/29 00:33:54;;;;;;;46.47;8.45;;;;;;;13.98;100.00;100930.34;5032336;28;20041;-63
2022/10/29 00:36:23;;;;;;;52.72;9.65;;;;;;;13.42;100.00;100858.91;5016004;28;20072;-64
2022/10/29 00:38:49;;;;;;;50.30;8.70;;;;;;;13.92;100.00;100934.75;5032193;28;20040;-63
2022/10/29 00:41:18;;;;;;;58.10;8.25;;;;;;;13.87;100.00;100942.66;5032222;28;20116;-63
2022/10/29 00:44:11;;;;;;;43.03;8.10;;;;;;;13.84;100.00;100933.13;5064401;28;20109;-63
2022/10/29 00:46:39;;;;;;;42.13;6.45;;;;;;;13.75;100.00;100941.72;5086194;28;20036;-64
2022/10/29 00:49:04;;;;;;;35.65;6.22;;;;;;;13.62;100.00;100938.03;5104976;28;20031;-63
2022/10/29 00:51:31;;;;;;;33.15;5.35;;;;;;;13.54;100.00;100938.28;5089591;28;20401;-63
2022/10/29 00:54:07;;;;;;;32.35;5.40;;;;;;;13.47;100.00;100959.09;5097520;28;20044;-63
2022/10/29 00:56:37;;;;;;;40.40;6.22;;;;;;;13.48;100.00;100951.84;5109438;28;20028;-64
2022/10/29 00:59:04;;;;;;;37.38;6.50;;;;;;;13.49;100.00;100946.19;5103989;28;20397;-63
2022/10/29 01:01:30;;;;;;;43.45;6.47;;;;;;;13.47;100.00;100963.69;5082777;28;20067;-63
2022/10/29 01:03:58;;;;;;;52.33;7.43;;;;;;;13.43;100.00;100959.75;5111020;28;20055;-63
2022/10/29 01:06:24;;;;;;;41.60;5.88;;;;;;;13.40;100.00;100961.00;5080850;28;20444;-64
2022/10/29 01:08:49;;;;;;;37.58;6.55;;;;;;;13.43;100.00;100957.03;5107266;28;20070;-63
2022/10/29 01:11:36;;;;;;;34.03;5.70;;;;;;;13.41;100.00;100954.56;5105339;28;20455;-63
2022/10/29 01:14:46;;;;;;;40.08;5.15;;;;;;;13.32;100.00;100964.78;5097338;28;20024;-63
2022/10/29 01:17:38;;;;;;;49.60;5.82;;;;;;;13.38;100.00;100955.81;5039112;28;20051;-63
2022/10/29 01:20:39;;;;;;;32.13;5.32;;;;;;;13.34;100.00;100945.63;5110535;28;20562;-63
2022/10/29 01:23:39;;;;;;;46.08;5.85;;;;;;;13.26;100.00;100933.19;5103796;28;20077;-63
2022/10/29 01:26:32;;;;;;;47.47;6.43;;;;;;;13.29;100.00;100943.59;5079107;28;20562;-63
2022/10/29 01:29:22;;;;;;;39.35;5.97;;;;;;;13.22;100.00;100961.66;5104985;28;20080;-63
2022/10/29 01:31:56;;;;;;;55.97;7.78;;;;;;;13.24;100.00;100959.59;5109627;28;20057;-63
2022/10/29 01:34:35;;;;;;;50.05;5.97;;;;;;;13.19;100.00;100955.84;5079581;28;20024;-63
2022/10/29 01:37:13;;;;;;;48.33;6.65;;;;;;;13.09;100.00;100934.69;5086293;28;20024;-63
2022/10/29 01:39:48;;;;;;;52.40;7.50;;;;;;;13.17;100.00;100947.94;5108170;28;20027;-63
2022/10/29 01:42:23;;;;;;;51.08;7.25;;;;;;;13.12;100.00;100959.41;5096809;28;20020;-63
2022/10/29 01:44:51;;;;;;;;;;;;;;;13.05;100.00;100955.06;5088637;28;20016;-62
2022/10/29 01:47:24;;;;;;;47.60;7.15;;;;;;;13.02;100.00;100956.31;5105046;28;19918;-63
2022/10/29 01:50:02;;;;;;;55.63;7.57;;;;;;;12.84;100.00;100939.94;5079500;28;20103;-63
2022/10/29 01:52:31;;;;;;;46.63;6.55;;;;;;;12.93;100.00;100960.28;5082180;28;20427;-63
2022/10/29 01:54:57;;;;;;;57.97;7.05;;;;;;;12.90;100.00;100968.78;5086349;28;20125;-63
2022/10/29 01:57:47;;;;;;;45.50;7.05;;;;;;;12.85;100.00;100977.53;5105956;28;20068;-63
2022/10/29 02:00:18;;;;;;;64.82;7.78;;;;;;;12.84;100.00;100975.84;5037075;28;20041;-64
2022/10/29 02:02:48;;;;;;;46.45;6.80;;;;;;;12.77;100.00;100969.63;5064066;28;20045;-63
2022/10/29 02:05:30;;;;;;;36.80;5.35;;;;;;;12.80;100.00;100971.94;5061434;28;20037;-62
2022/10/29 02:08:00;;;;;;;49.15;6.05;;;;;;;12.74;100.00;100971.94;5053809;28;20464;-62
2022/10/29 02:10:26;;;;;;;53.70;6.97;;;;;;;12.75;100.00;100974.44;5066093;28;20380;-63
2022/10/29 02:12:53;;;;;;;34.95;5.38;;;;;;;12.72;100.00;100971.31;5058109;28;20029;-63
2022/10/29 02:15:26;;;;;;;47.33;6.50;;;;;;;12.72;100.00;100955.13;5058471;28;20053;-63
2022/10/29 02:17:52;;;;;;;52.90;7.07;;;;;;;12.77;100.00;100960.72;5049832;28;20119;-63
2022/10/29 02:20:17;;;;;;;42.78;6.20;;;;;;;12.73;100.00;100952.22;5053313;28;20131;-63
2022/10/29 02:22:43;;;;;;;44.53;6.43;;;;;;;12.77;100.00;100974.22;5063760;28;20033;-63
2022/10/29 02:25:09;;;;;;;37.70;5.68;;;;;;;12.75;100.00;100978.97;5043772;28;20048;-63
2022/10/29 02:27:35;;;;;;;45.45;6.45;;;;;;;12.77;100.00;100980.44;5056333;28;20033;-63
2022/10/29 02:30:00;;;;;;;38.05;6.20;;;;;;;12.78;100.00;100986.66;5066650;28;20060;-63
2022/10/29 02:32:26;;;;;;;55.88;7.50;;;;;;;12.78;100.00;100986.66;5096631;28;20059;-62
2022/10/29 02:34:51;;;;;;;43.25;6.60;;;;;;;12.80;100.00;100981.91;5086646;28;20035;-63
2022/10/29 02:37:17;;;;;;;41.78;5.75;;;;;;;12.67;100.00;100970.06;5103746;28;20027;-62
2022/10/29 02:39:43;;;;;;;34.97;5.32;;;;;;;12.81;100.00;100999.75;5078742;28;20054;-63
2022/10/29 02:42:08;;;;;;;40.85;5.57;;;;;;;12.78;100.00;100992.06;5108920;28;20035;-63
2022/10/29 02:44:36;;;;;;;37.45;5.25;;;;;;;12.85;100.00;101003.72;5079602;28;20110;-63
2022/10/29 02:47:02;;;;;;;44.75;6.03;;;;;;;12.84;100.00;100999.34;5103164;28;20043;-62
2022/10/29 02:49:27;;;;;;;33.22;5.28;;;;;;;12.83;100.00;101000.38;5086932;28;20057;-63
2022/10/29 02:51:52;;;;;;;41.85;6.38;;;;;;;12.82;100.00;100983.34;5096088;28;20031;-62
2022/10/29 02:54:20;;;;;;;38.92;5.90;;;;;;;12.92;100.00;101004.53;5073322;28;20063;-62
2022/10/29 02:56:45;;;;;;;39.83;6.35;;;;;;;12.89;100.00;101000.38;5080684;28;20031;-62
2022/10/29 02:59:11;;;;;;;33.25;4.78;;;;;;;12.84;100.00;101020.94;5083648;28;20064;-62
2022/10/29 03:01:36;;;;;;;43.00;6.63;;;;;;;12.82;100.00;101025.75;5105873;28;20268;-62
2022/10/29 03:04:02;;;;;;;40.28;6.15;;;;;;;12.75;100.00;101030.28;5077008;28;20035;-62
2022/10/29 03:06:27;;;;;;;41.60;6.55;;;;;;;12.76;100.00;101021.16;5089872;28;20065;-62
2022/10/29 03:08:52;;;;;;;36.22;5.45;;;;;;;12.76;100.00;101022.00;5100210;28;20020;-62
2022/10/29 03:11:18;;;;;;;40.08;5.93;;;;;;;12.77;100.00;101025.53;5082054;28;20040;-62
2022/10/29 03:13:43;;;;;;;40.00;5.65;;;;;;;12.79;100.00;101035.09;5106872;28;20106;-62
2022/10/29 03:16:09;;;;;;;47.22;5.90;;;;;;;12.77;100.00;101033.63;5094929;28;20024;-62
2022/10/29 03:18:34;;;;;;;42.15;6.30;;;;;;;12.78;100.00;101029.88;5106453;28;20069;-62
2022/10/29 03:20:59;;;;;;;41.42;6.05;;;;;;;12.83;100.00;101030.09;5100445;28;20152;-62
2022/10/29 03:23:25;;;;;;;39.25;6.50;;;;;;;12.73;100.00;101021.59;5081325;28;20383;-62
2022/10/29 03:25:53;;;;;;;40.55;6.47;;;;;;;12.78;100.00;101027.16;5107587;28;20105;-62
2022/10/29 03:28:41;;;;;;;41.97;5.72;;;;;;;12.80;100.00;101030.50;5094970;28;20031;-62
2022/10/29 03:31:07;;;;;;;50.08;7.30;;;;;;;12.81;100.00;101037.56;5059235;28;20060;-62
2022/10/29 03:33:32;;;;;;;32.05;5.18;;;;;;;12.75;100.00;101035.69;5062129;28;20066;-62
2022/10/29 03:36:04;;;;;;;35.58;5.65;;;;;;;12.83;100.00;101049.00;5035409;28;20037;-62
2022/10/29 03:38:30;;;;;;;33.60;4.72;;;;;;;12.86;100.00;101051.28;5047497;28;20037;-62
2022/10/29 03:40:55;;;;;;;35.50;5.53;;;;;;;12.86;100.00;101045.88;5023886;28;20089;-62
2022/10/29 03:43:22;;;;;;;30.58;4.60;;;;;;;12.99;100.00;101048.56;5057186;28;20045;-62
2022/10/29 03:45:52;;;;;;;25.63;5.00;;;;;;;12.91;100.00;101057.72;5064166;28;20059;-62
2022/10/29 03:48:17;;;;;;;28.60;5.07;;;;;;;12.80;100.00;101015.13;5051927;28;20048;-63
2022/10/29 03:50:43;;;;;;;30.92;5.03;;;;;;;12.96;100.00;101050.88;5045371;28;20052;-62
2022/10/29 03:53:09;;;;;;;31.85;4.70;;;;;;;12.92;100.00;101037.78;5058692;28;20391;-63
2022/10/29 03:55:34;;;;;;;31.23;5.13;;;;;;;12.90;100.00;101045.25;5038191;28;20518;-63
2022/10/29 03:58:00;;;;;;;29.25;4.40;;;;;;;12.87;100.00;101052.94;5065294;28;20040;-63
2022/10/29 04:00:25;;;;;;;40.08;4.90;;;;;;;12.87;100.00;101056.47;5035952;28;20572;-62
2022/10/29 04:02:50;;;;;;;31.67;4.72;;;;;;;12.91;100.00;101063.13;5077643;28;20052;-63
2022/10/29 04:05:18;;;;;;;33.55;6.00;;;;;;;12.96;100.00;101076.00;5102198;28;20039;-63
2022/10/29 04:07:44;;;;;;;29.98;5.30;;;;;;;12.83;100.00;101060.63;5061333;28;20645;-63
2022/10/29 04:10:10;;;;;;;37.70;5.70;;;;;;;12.92;100.00;101069.38;5107751;28;20119;-63
2022/10/29 04:12:35;;;;;;;29.27;4.53;;;;;;;12.85;100.00;101052.34;5096328;28;20027;-63
2022/10/29 04:15:00;;;;;;;24.83;4.55;;;;;;;12.90;100.00;101061.44;5084309;28;20111;-63
2022/10/29 04:17:26;;;;;;;27.10;4.63;;;;;;;12.91;100.00;101057.72;5103492;28;20056;-63
2022/10/29 04:19:54;;;;;;;32.58;5.03;;;;;;;12.99;100.00;101062.09;5095259;28;20039;-62
2022/10/29 04:22:19;;;;;;;26.42;4.63;;;;;;;13.03;100.00;101060.63;5107453;28;20437;-63
2022/10/29 04:24:44;;;;;;;27.10;4.95;;;;;;;13.06;100.00;101059.38;5079085;28;20076;-63
2022/10/29 04:27:10;;;;;;;30.30;5.03;;;;;;;13.06;100.00;101070.19;5082906;28;20042;-63
2022/10/29 04:29:35;;;;;;;27.42;3.72;;;;;;;13.02;100.00;101067.06;5104759;28;20059;-63
2022/10/29 04:32:00;;;;;;;27.17;4.10;;;;;;;13.09;100.00;101089.50;5042570;28;20028;-64
2022/10/29 04:34:26;;;;;;;26.77;5.18;;;;;;;13.03;100.00;101093.03;5107132;28;20059;-63
2022/10/29 04:36:52;;;;;;;29.02;4.57;;;;;;;12.92;100.00;101077.47;5080355;28;20039;-63
2022/10/29 04:39:17;;;;;;;34.22;4.95;;;;;;;13.08;100.00;101098.66;5081815;28;20039;-63
2022/10/29 04:41:43;;;;;;;40.88;6.13;;;;;;;13.08;100.00;101101.38;5087433;28;20036;-63
2022/10/29 04:44:08;;;;;;;37.65;5.15;;;;;;;13.15;100.00;101104.88;5094125;28;20032;-63
2022/10/29 04:46:33;;;;;;;31.88;4.82;;;;;;;13.15;100.00;101104.06;5087881;28;20022;-64
2022/10/29 04:48:59;;;;;;;25.38;4.25;;;;;;;13.07;100.00;101099.69;5081247;28;20564;-63
2022/10/29 04:51:25;;;;;;;31.23;5.13;;;;;;;13.07;100.00;101110.47;5098647;28;20250;-63
2022/10/29 04:53:53;;;;;;;41.05;5.00;;;;;;;13.00;100.00;101120.47;5088445;28;20541;-63
2022/10/29 04:56:19;;;;;;;28.08;3.92;;;;;;;12.99;100.00;101121.50;5093800;28;20106;-63
2022/10/29 04:58:44;;;;;;;36.63;4.72;;;;;;;12.99;100.00;101116.09;5104245;28;20126;-63
2022/10/29 05:01:10;;;;;;;28.88;4.57;;;;;;;13.05;100.00;101115.28;5100490;28;20031;-62
2022/10/29 05:03:35;;;;;;;40.40;5.80;;;;;;;13.03;100.00;101111.94;5099932;28;20103;-63
2022/10/29 05:06:03;;;;;;;37.72;5.40;;;;;;;13.01;100.00;101111.31;5111035;28;20039;-63
2022/10/29 05:08:28;;;;;;;26.55;4.70;;;;;;;12.84;100.00;101093.84;5080236;28;20023;-63
2022/10/29 05:10:54;;;;;;;35.35;5.32;;;;;;;12.94;100.00;101108.59;5071565;28;20105;-62
2022/10/29 05:13:19;;;;;;;34.05;4.97;;;;;;;12.93;100.00;101109.66;5087307;28;20074;-62
2022/10/29 05:15:49;;;;;;;31.95;5.18;;;;;;;12.92;100.00;101115.28;5081308;28;20100;-62
2022/10/29 05:18:15;;;;;;;38.70;5.60;;;;;;;12.92;100.00;101123.38;5110725;28;20089;-63
2022/10/29 05:20:40;;;;;;;35.35;5.63;;;;;;;12.97;100.00;101126.28;5099927;28;20032;-63
2022/10/29 05:23:09;;;;;;;35.88;5.35;;;;;;;13.01;100.00;101132.91;5086548;28;20056;-62
2022/10/29 05:25:37;;;;;;;36.85;5.72;;;;;;;13.01;100.00;101130.22;5089674;28;20490;-63
2022/10/29 05:28:12;;;;;;;31.25;4.70;;;;;;;12.97;100.00;101137.09;5078706;28;20032;-63
2022/10/29 05:30:38;;;;;;;30.80;3.97;;;;;;;12.92;100.00;101129.63;5083170;28;20106;-65
2022/10/29 05:33:08;;;;;;;32.00;4.57;;;;;;;12.98;100.00;101125.25;5092995;28;20036;-64
2022/10/29 05:35:34;;;;;;;38.25;5.70;;;;;;;12.93;100.00;101131.25;5095573;28;20347;-63
2022/10/29 05:38:00;;;;;;;31.58;4.63;;;;;;;12.97;100.00;101131.69;5110183;28;20637;-62
2022/10/29 05:40:26;;;;;;;39.65;5.43;;;;;;;13.01;100.00;101132.09;5079298;28;20031;-62
2022/10/29 05:42:52;;;;;;;32.92;4.82;;;;;;;12.91;100.00;101129.81;5088115;28;20032;-62
2022/10/29 05:45:17;;;;;;;32.28;4.20;;;;;;;12.97;100.00;101136.25;5086167;28;20024;-62
2022/10/29 05:47:43;;;;;;;39.47;4.63;;;;;;;12.96;100.00;101145.41;5099153;28;20089;-63
2022/10/29 05:50:09;;;;;;;22.45;3.67;;;;;;;12.96;100.00;101146.22;5094865;28;20026;-62
2022/10/29 05:52:35;;;;;;;36.38;5.53;;;;;;;13.01;100.00;101145.59;5090302;28;20027;-63
2022/10/29 05:55:00;;;;;;;31.48;4.97;;;;;;;12.91;100.00;101144.16;5101617;28;20626;-63
2022/10/29 05:57:27;;;;;;;28.92;4.13;;;;;;;12.97;100.00;101156.00;5101317;28;20027;-61
2022/10/29 05:59:52;;;;;;;22.63;3.30;;;;;;;12.88;100.00;101128.38;5090897;28;20023;-64
2022/10/29 06:02:18;;;;;;;21.75;2.63;;;;;;;12.94;100.00;101143.72;5075701;28;20125;-63
2022/10/29 06:04:43;;;;;;;29.70;4.35;;;;;;;13.01;100.00;101127.53;5093129;28;20039;-63
2022/10/29 06:07:08;;;;;;;29.83;4.40;;;;;;;13.07;100.00;101142.91;5092826;28;20494;-65
2022/10/29 06:09:34;;;;;;;31.10;4.32;;;;;;;13.10;100.00;101144.38;5075691;28;20106;-63
2022/10/29 06:11:59;;;;;;;31.15;4.03;;;;;;;13.11;100.00;101146.88;5084832;28;20032;-62
2022/10/29 06:14:24;;;;;;;27.30;4.00;;;;;;;12.98;100.00;101151.41;5059827;28;20035;-64
2022/10/29 06:16:52;;;;;;;30.67;4.65;;;;;;;12.90;100.00;101157.84;5105907;28;20059;-63
2022/10/29 06:19:18;;;;;;;29.30;4.10;;;;;;;12.93;100.00;101160.97;5075830;28;20036;-63
2022/10/29 06:21:44;;;;;;;30.30;4.43;;;;;;;12.93;100.00;101163.69;5095352;28;20035;-63
2022/10/29 06:24:09;;;;;;;21.85;3.40;;;;;;;12.92;100.00;101172.00;5109237;28;20524;-62
2022/10/29 06:26:38;;;;;;;28.67;3.72;;;;;;;12.89;100.00;101126.50;5073762;28;20070;-62
2022/10/29 06:29:04;;;;;;;21.70;3.33;;;;;;;13.13;100.00;101163.69;5073870;28;20051;-62
2022/10/29 06:31:29;;;;;;;31.67;4.00;;;;;;;13.15;100.00;101166.22;5104540;28;20027;-62
2022/10/29 06:33:55;;;;;;;27.80;4.15;;;;;;;13.17;100.00;101164.94;5077439;28;20123;-62
2022/10/29 06:36:21;;;;;;;30.02;3.42;;;;;;;13.21;100.00;101175.34;5107201;28;20059;-63
2022/10/29 06:38:46;;;;;;;26.13;3.30;;;;;;;13.14;100.00;101175.31;5097635;28;20039;-62
2022/10/29 06:41:11;;;;;;;25.17;3.78;;;;;;;13.07;100.00;101164.50;5102177;28;20051;-62
2022/10/29 06:43:37;;;;;;;27.70;4.40;;;;;;;13.12;100.00;101178.25;5086937;28;20087;-62
2022/10/29 06:46:03;;;;;;;30.00;3.92;;;;;;;13.10;100.00;101172.22;5076865;28;20059;-62
2022/10/29 06:48:28;;;;;;;31.77;4.20;;;;;;;12.93;100.00;101158.28;5090375;28;20077;-63
2022/10/29 06:50:53;;;;;;;29.08;3.92;;;;;;;13.10;100.00;101182.19;5097862;28;20054;-62
2022/10/29 06:53:39;;;;;;;22.88;4.13;;;;;;;13.13;100.00;101189.88;5099726;28;20530;-62
2022/10/29 06:56:05;;;;;;;32.25;4.18;;;;;;;13.21;100.00;101186.13;5046354;28;20053;-63
2022/10/29 06:58:30;;;;;;;33.95;4.70;;;;;;;13.20;100.00;101185.31;5046992;28;20146;-63
2022/10/29 07:00:58;;;;;;;31.30;4.03;;;;;;;13.26;100.00;101189.09;5047092;28;20104;-68
2022/10/29 07:03:23;;;;;;;35.88;4.47;;;;;;;13.32;100.00;101190.97;5011142;28;20033;-63
2022/10/29 07:05:58;;;;;;;25.40;3.78;;;;;;;13.31;100.00;101194.69;5044094;28;20566;-63
2022/10/29 07:08:27;;;;;;;32.28;5.22;;;;;;;13.38;100.00;101195.56;5049355;28;20033;-63
2022/10/29 07:10:53;;;;;;;32.58;4.43;;;;;;;13.43;100.00;101200.31;5032544;28;20500;-63
2022/10/29 07:13:19;;;;;;;27.50;5.15;;;;;;;13.47;100.00;101213.19;5032408;28;20040;-63
2022/10/29 07:15:47;;;;;;;37.25;5.00;;;;;;;13.50;100.00;101211.97;5049266;28;20049;-63
2022/10/29 07:18:13;;;;;;;31.58;4.50;;;;;;;13.46;100.00;101208.03;5049073;28;20094;-63
2022/10/29 07:20:43;;;;;;;33.15;4.45;;;;;;;13.43;100.00;101217.38;5013160;28;20037;-63
2022/10/29 07:23:09;;;;;;;34.50;4.63;;;;;;;13.44;100.00;101204.69;5021840;28;20039;-63
2022/10/29 07:25:36;;;;;;;33.25;4.40;;;;;;;13.47;100.00;101205.09;5048767;28;20028;-63
2022/10/29 07:28:24;;;;;;;30.25;4.95;;;;;;;13.50;100.00;101193.03;5103846;28;20047;-63
2022/10/29 07:30:50;;;;;;;23.92;3.60;;;;;;;13.08;100.00;101138.34;5048885;28;20041;-62
2022/10/29 07:33:16;;;;;;;33.38;4.40;;;;;;;13.50;100.00;101204.69;5032101;28;20041;-62
2022/10/29 07:35:42;;;;;;;39.53;5.05;;;;;;;13.50;100.00;101196.56;5048992;28;20064;-62
2022/10/29 07:38:10;;;;;;;36.45;4.57;;;;;;;13.52;100.00;101188.25;5048664;28;20075;-62
2022/10/29 07:40:36;;;;;;;24.98;4.20;;;;;;;13.54;100.00;101189.72;5049059;28;20436;-62
2022/10/29 07:43:01;;;;;;;25.88;3.83;;;;;;;13.54;100.00;101191.56;5048712;28;20124;-62
2022/10/29 07:45:27;;;;;;;27.63;3.90;;;;;;;13.62;100.00;101192.19;5032140;28;20051;-62
2022/10/29 07:48:03;;;;;;;30.40;4.28;;;;;;;13.67;100.00;101204.25;5048956;28;20614;-62
2022/10/29 07:50:30;;;;;;;37.50;3.72;;;;;;;13.62;100.00;101204.91;5012261;28;20053;-62
2022/10/29 07:53:16;;;;;;;32.42;4.13;;;;;;;13.65;100.00;101204.47;5036301;28;20200;-62
2022/10/29 07:55:41;;;;;;;33.03;4.78;;;;;;;13.63;100.00;101207.38;5048363;28;20044;-62
2022/10/29 07:58:10;;;;;;;33.92;4.00;;;;;;;13.63;100.00;101209.25;5048559;28;20048;-62
2022/10/29 08:00:38;;;;;;;35.50;4.97;;;;;;;13.64;100.00;101202.78;5048594;28;20075;-62
2022/10/29 08:03:23;;;;;;;30.70;4.45;;;;;;;13.61;100.00;101209.47;5076838;28;20054;-62
2022/10/29 08:05:48;;;;;;;34.05;4.15;;;;;;;13.63;100.00;101218.19;5033763;28;20084;-62
2022/10/29 08:08:14;;;;;;;32.55;4.70;;;;;;;13.59;100.00;101224.25;5045062;28;20056;-62
2022/10/29 08:10:39;;;;;;;34.10;4.90;;;;;;;13.65;100.00;101238.81;5017525;28;20037;-62
2022/10/29 08:13:05;;;;;;;36.88;5.47;;;;;;;13.63;100.00;101237.13;5039875;28;20036;-62
2022/10/29 08:15:32;;;;;;;37.25;4.72;;;;;;;13.65;100.00;101234.22;5040788;28;20124;-62
2022/10/29 08:17:58;;;;;;;28.50;3.65;;;;;;;13.63;100.00;101228.19;5016053;28;20447;-65
2022/10/29 08:20:26;;;;;;;28.83;4.03;;;;;;;13.62;100.00;101231.94;5044719;28;20045;-62
2022/10/29 08:22:51;;;;;;;30.98;3.83;;;;;;;13.66;100.00;101235.88;5035607;28;20033;-62
2022/10/29 08:25:17;;;;;;;39.55;4.57;;;;;;;13.65;100.00;101241.50;5021370;28;20181;-62
2022/10/29 08:27:43;;;;;;;38.95;4.47;;;;;;;13.74;100.00;101240.22;5044434;28;20064;-62
2022/10/29 08:30:11;;;;;;;31.15;3.83;;;;;;;13.72;100.00;101234.22;5051777;28;20037;-62
2022/10/29 08:32:46;;;;;;;33.35;4.60;;;;;;;13.60;100.00;101225.88;5063707;28;20203;-62
2022/10/29 08:35:12;;;;;;;33.60;4.90;;;;;;;13.54;100.00;101240.25;5041118;28;20094;-64
2022/10/29 08:37:44;;;;;;;33.63;4.97;;;;;;;13.39;100.00;101222.38;5092579;28;20056;-62
2022/10/29 08:40:48;;;;;;;36.38;4.72;;;;;;;13.50;100.00;101244.41;5076611;28;20456;-62
2022/10/29 08:43:51;;;;;;;36.78;4.55;;;;;;;13.50;100.00;101244.41;5100779;28;20036;-62
2022/10/29 08:46:41;;;;;;;30.27;4.40;;;;;;;13.49;100.00;101242.75;5038944;28;20048;-62
2022/10/29 08:49:14;;;;;;;32.72;5.68;;;;;;;13.45;100.00;101244.22;5063170;28;20046;-62
2022/10/29 08:51:43;;;;;;;36.83;4.68;;;;;;;13.33;100.00;101233.16;5048640;28;20075;-62
2022/10/29 08:54:14;;;;;;;37.22;4.75;;;;;;;13.45;100.00;101250.44;5055096;28;20033;-62
2022/10/29 08:56:47;;;;;;;34.53;4.00;;;;;;;13.48;100.00;101260.84;5066505;28;20575;-62
2022/10/29 08:59:20;;;;;;;34.50;4.30;;;;;;;13.50;100.00;101266.03;5061671;28;20403;-62
2022/10/29 09:01:46;;;;;;;29.48;4.22;;;;;;;13.55;100.00;101268.97;5057556;28;20052;-62
2022/10/29 09:04:35;;;;;;;33.72;4.20;;;;;;;13.56;100.00;101276.84;5068051;28;20415;-62
2022/10/29 09:07:19;;;;;;;30.33;4.28;;;;;;;13.57;100.00;101273.09;5060127;28;20054;-62
2022/10/29 09:10:30;;;;;;;29.05;3.70;;;;;;;13.56;100.00;101284.97;5040814;28;20514;-63
2022/10/29 09:13:24;;;;;;;28.65;3.63;;;;;;;13.61;100.00;101285.19;5016495;28;20051;-62
2022/10/29 09:15:58;;;;;;;33.03;4.57;;;;;;;13.60;100.00;101288.91;5056759;28;20431;-62
2022/10/29 09:18:29;;;;;;;34.58;4.13;;;;;;;13.65;100.00;101301.81;5110829;28;20028;-62
2022/10/29 09:21:06;;;;;;;28.35;3.63;;;;;;;13.68;100.00;101298.72;5101388;28;20034;-62
2022/10/29 09:23:48;;;;;;;34.47;5.03;;;;;;;13.70;100.00;101288.50;5101715;28;20027;-62
2022/10/29 09:26:19;;;;;;;29.95;4.60;;;;;;;13.72;100.00;101293.72;5110581;28;20020;-62
2022/10/29 09:28:47;;;;;;;27.00;3.65;;;;;;;13.74;100.00;101291.63;5081549;28;20027;-62
2022/10/29 09:31:12;;;;;;;37.42;4.57;;;;;;;13.76;100.00;101284.97;5104505;28;20047;-62
2022/10/29 09:33:46;;;;;;;32.03;4.45;;;;;;;13.69;100.00;101272.50;5094058;28;20447;-62
2022/10/29 09:36:16;;;;;;;23.85;3.50;;;;;;;13.83;100.00;101287.66;5108747;28;20479;-62
2022/10/29 09:38:52;;;;;;;40.75;4.60;;;;;;;13.83;100.00;101268.72;5098934;28;20031;-62
2022/10/29 09:41:38;;;;;;;29.13;3.88;;;;;;;13.86;100.00;101274.56;5103437;28;20048;-62
2022/10/29 09:44:29;;;;;;;32.78;4.22;;;;;;;13.87;100.00;101269.97;5030811;28;20081;-62
2022/10/29 09:47:02;;;;;;;30.02;4.63;;;;;;;13.87;100.00;101272.69;5051067;28;20057;-62
2022/10/29 09:49:42;;;;;;;33.53;4.72;;;;;;;13.94;100.00;101278.94;5033916;28;20487;-62
2022/10/29 09:52:23;;;;;;;32.60;5.20;;;;;;;13.99;100.00;101291.81;5050760;28;20045;-62
2022/10/29 09:54:51;;;;;;;29.08;4.60;;;;;;;13.98;100.00;101288.28;5050483;28;20146;-62
2022/10/29 09:57:30;;;;;;;26.17;4.72;;;;;;;13.97;100.00;101278.53;5050821;28;20582;-62
2022/10/29 10:00:00;;;;;;;30.52;4.00;;;;;;;14.01;100.00;101279.75;5050840;28;20128;-62
2022/10/29 10:02:31;;;;;;;27.98;3.78;;;;;;;14.02;100.00;101286.00;5033829;28;20032;-62
2022/10/29 10:05:04;;;;;;;28.13;4.45;;;;;;;14.04;100.00;101289.34;5033972;28;20033;-63
2022/10/29 10:07:29;;;;;;;25.67;4.05;;;;;;;14.07;100.00;101278.06;5050683;28;20119;-63
2022/10/29 10:10:01;;;;;;;33.10;4.53;;;;;;;14.02;100.00;101272.47;5017424;28;20135;-62
2022/10/29 10:12:35;;;;;;;26.88;4.47;;;;;;;14.09;100.00;101281.41;5050486;28;20387;-62
2022/10/29 10:15:32;;;;;;;35.85;4.55;;;;;;;14.04;100.00;101290.16;5078865;28;20036;-63
2022/10/29 10:18:04;;;;;;;29.55;4.60;;;;;;;14.07;100.00;101297.88;5097326;28;20123;-63
2022/10/29 10:20:35;;;;;;;23.52;3.80;;;;;;;14.09;100.00;101287.66;5079832;28;20023;-63
2022/10/29 10:23:16;;;;;;;39.85;4.70;;;;;;;14.12;100.00;101294.53;5105244;28;20028;-63
2022/10/29 10:25:42;;;;;;;23.20;4.15;;;;;;;14.10;100.00;101292.03;5106661;28;20035;-63
2022/10/29 10:28:28;;;;;;;28.55;3.95;;;;;;;14.10;100.00;101294.75;5096191;28;20107;-63
2022/10/29 10:31:03;;;;;;;30.00;4.75;;;;;;;14.17;100.00;101288.47;5106109;28;20470;-63
2022/10/29 10:33:29;;;;;;;31.88;4.43;;;;;;;14.18;100.00;101300.97;5104636;28;20032;-61
2022/10/29 10:35:59;;;;;;;32.38;4.13;;;;;;;14.14;100.00;101294.28;5079120;28;20078;-62
2022/10/29 10:38:24;;;;;;;31.95;4.13;;;;;;;14.26;100.00;101306.16;5109160;28;20086;-62
2022/10/29 10:41:00;;;;;;;26.48;3.83;;;;;;;14.07;100.00;101267.25;5099158;28;20497;-63
2022/10/29 10:43:25;;;;;;;33.30;3.95;;;;;;;14.25;100.00;101297.19;5084122;28;20035;-62
2022/10/29 10:45:58;;;;;;;26.70;4.40;;;;;;;14.23;100.00;101295.75;5089029;28;20084;-62
2022/10/29 10:48:27;;;;;;;23.05;3.80;;;;;;;14.25;100.00;101301.78;5095864;28;20874;-62
2022/10/29 10:51:23;;;;;;;29.80;5.28;;;;;;;14.23;100.00;101293.03;5105948;28;20039;-62
2022/10/29 10:53:49;;;;;;;25.60;3.95;;;;;;;14.08;100.00;101264.34;5049611;28;20041;-62
2022/10/29 10:56:18;;;;;;;27.33;4.18;;;;;;;14.22;100.00;101291.38;5049182;28;20487;-62
2022/10/29 10:58:54;;;;;;;30.52;4.30;;;;;;;14.18;100.00;101290.16;5049626;28;20037;-62
2022/10/29 11:01:38;;;;;;;31.77;4.88;;;;;;;14.15;100.00;101287.84;5049031;28;20029;-62
2022/10/29 11:04:37;;;;;;;25.58;4.22;;;;;;;14.11;100.00;101309.09;5049534;28;20127;-62
2022/10/29 11:07:07;;;;;;;30.08;4.57;;;;;;;14.13;100.00;101311.59;5037618;28;20040;-65
2022/10/29 11:09:36;;;;;;;23.15;4.13;;;;;;;14.01;100.00;101301.41;5049508;28;20041;-62
2022/10/29 11:12:41;;;;;;;26.00;3.75;;;;;;;14.11;100.00;101306.41;5049442;28;20115;-62
2022/10/29 11:15:32;;;;;;;24.90;4.78;;;;;;;14.13;100.00;101317.81;5038001;28;20106;-62
2022/10/29 11:18:13;;;;;;;27.88;4.63;;;;;;;14.12;100.00;101312.63;5029700;28;20037;-62
2022/10/29 11:20:42;;;;;;;24.98;4.60;;;;;;;14.05;100.00;101291.81;5012837;28;20171;-62
2022/10/29 11:23:30;;;;;;;30.58;4.55;;;;;;;14.12;100.00;101296.41;5038031;28;20380;-63
2022/10/29 11:26:04;;;;;;;28.52;3.65;;;;;;;14.07;100.00;101294.31;5107183;28;20117;-61